フェアバンクス の空港の天気 - METARとTAF

フェアバンクス国際空港 ( PAFA / FAI ) - アメリカ アラスカ州フェアバンクス
飛行場実況気象(Metar)
観測時間01/22 20:41 AKST (01/23 05:41 UTC)
風向・風速静穏 0m/s
視程4000m
天気現象弱い雪 もや
全天の4割程度の雲 雲底高度 760m
全天を覆う雲 雲底高度 1040m
気温-21.7℃
湿度79%
気圧1018hPa
METARPAFA 230541Z 00000KT 2 1/2SM -SN BR SCT025 OVC034 M22/M24 A3006 RMK AO2 T12171244
過去の天気等 Google飛行場航空写真 Wunderground天気予報

過去48時間のMETAR

飛行場予報(TAF)
発表時間: 1/22 20:34 AKST (1/23 05:34 UTC)
予報対象時間: 22日21時 AKST ~ 24日3時 AKST
風向・風速静穏
視程4,830m
天気現象弱い雪 もや
全天を覆う雲 雲底高度 850m
23日4時 AKST から
風向・風速不定 1m/s
23日13時 AKST から
風向・風速不定 1m/s
視程3,220m
天気現象もや 周辺でしゅう雨
全天の4割程度の雲 雲底高度 460m
全天の8割程度の雲 雲底高度 1,070m
23日15時 AKST から
風向・風速不定 1m/s
視程8,050m
天気現象もや
全天を覆う雲 雲底高度 910m
PAFA 230534Z 2306/2412 00000KT 3SM -SN BR OVC028
FM231300 VRB02KT 1 1/2SM -SN BR BKN015 OVC025
FM232200 VRB02KT 2SM BR VCSH SCT015 BKN035
FM240000 VRB02KT 5SM BR OVC030